createdAt,value
2023-04-02T00:00:26.407Z,79.27
2023-04-02T00:01:26.379Z,79.58
2023-04-02T00:02:26.424Z,79.79
2023-04-02T00:03:26.411Z,79.47
2023-04-02T00:04:26.365Z,78.96
2023-04-02T00:05:26.381Z,78.96
2023-04-02T00:06:26.993Z,79.37
2023-04-02T00:07:26.331Z,79.79
2023-04-02T00:08:26.307Z,80.19
2023-04-02T00:09:26.277Z,79.99
2023-04-02T00:10:26.287Z,80.09
2023-04-02T00:11:26.249Z,80.09
2023-04-02T00:12:26.248Z,80.09
2023-04-02T00:13:26.229Z,79.99
2023-04-02T00:14:26.237Z,79.16
2023-04-02T00:15:26.217Z,79.58
2023-04-02T00:16:26.197Z,79.27
2023-04-02T00:17:26.191Z,79.68
2023-04-02T00:18:26.241Z,79.88
2023-04-02T00:19:26.145Z,79.88
2023-04-02T00:20:26.172Z,79.47
2023-04-02T00:21:26.180Z,79.37
2023-04-02T00:22:26.853Z,79.27
2023-04-02T00:23:26.087Z,79.37
2023-04-02T00:24:26.094Z,79.79
2023-04-02T00:25:26.088Z,79.88
2023-04-02T00:26:26.087Z,80.19
2023-04-02T00:27:26.036Z,80.19
2023-04-02T00:28:26.034Z,80.09
2023-04-02T00:29:26.008Z,80.19
2023-04-02T00:30:25.992Z,80.30
2023-04-02T00:31:26.127Z,79.75
2023-04-02T00:32:26.179Z,78.75
2023-04-02T00:33:25.960Z,79.06
2023-04-02T00:34:25.952Z,79.64
2023-04-02T00:35:25.940Z,79.95
2023-04-02T00:36:25.921Z,80.36
2023-04-02T00:37:25.948Z,80.36
2023-04-02T00:38:25.892Z,80.47
2023-04-02T00:39:25.877Z,79.95
2023-04-02T00:40:25.867Z,80.16
2023-04-02T00:41:25.880Z,80.05
2023-04-02T00:42:25.895Z,80.26
2023-04-02T00:43:25.853Z,80.47
2023-04-02T00:44:25.818Z,80.30
2023-04-02T00:45:25.809Z,80.71
2023-04-02T00:46:25.949Z,81.63
2023-04-02T00:47:25.801Z,81.33
2023-04-02T00:48:25.757Z,81.12
2023-04-02T00:49:25.753Z,81.12
2023-04-02T00:50:25.722Z,81.23
2023-04-02T00:51:25.727Z,81.12
2023-04-02T00:52:25.773Z,81.74
2023-04-02T00:53:25.720Z,81.84
2023-04-02T00:54:25.700Z,81.23
2023-04-02T00:55:25.657Z,80.30
2023-04-02T00:56:25.687Z,78.55
2023-04-02T00:57:25.818Z,78.34
2023-04-02T00:58:25.663Z,78.44
2023-04-02T00:59:25.648Z,78.96
2023-04-02T01:00:25.632Z,79.06
2023-04-02T01:01:25.613Z,80.19
2023-04-02T01:02:25.658Z,80.09
2023-04-02T01:03:25.693Z,80.51
2023-04-02T01:04:25.544Z,81.02
2023-04-02T01:05:25.561Z,81.53
2023-04-02T01:06:25.514Z,81.33
2023-04-02T01:07:25.512Z,81.63
2023-04-02T01:08:25.490Z,82.40
2023-04-02T01:09:25.480Z,83.12
2023-04-02T01:10:25.512Z,81.57
2023-04-02T01:11:25.485Z,81.88
2023-04-02T01:12:25.451Z,81.47
2023-04-02T01:13:25.457Z,81.57
2023-04-02T01:14:25.407Z,81.77
2023-04-02T01:15:25.414Z,81.37
2023-04-02T01:16:25.536Z,81.88
2023-04-02T01:17:25.428Z,81.98
2023-04-02T01:18:25.468Z,81.77
2023-04-02T01:19:25.341Z,80.95
2023-04-02T01:20:25.330Z,79.30
2023-04-02T01:21:25.313Z,78.69
2023-04-02T01:22:25.306Z,78.75
2023-04-02T01:23:25.338Z,78.34
2023-04-02T01:24:25.288Z,78.96
2023-04-02T01:25:25.267Z,79.47
2023-04-02T01:26:25.272Z,80.19
2023-04-02T01:27:25.310Z,80.51
2023-04-02T01:28:25.263Z,80.40
2023-04-02T01:29:25.265Z,81.02
2023-04-02T01:30:25.226Z,80.81
2023-04-02T01:31:25.292Z,81.23
2023-04-02T01:32:25.220Z,81.43
2023-04-02T01:33:25.305Z,81.33
2023-04-02T01:34:26.496Z,81.43
2023-04-02T01:35:25.172Z,81.95
2023-04-02T01:36:25.121Z,82.15
2023-04-02T01:37:25.121Z,82.25
2023-04-02T01:38:25.108Z,81.74
2023-04-02T01:39:25.119Z,82.15
2023-04-02T01:40:25.070Z,81.63
2023-04-02T01:41:25.043Z,80.95
2023-04-02T01:42:25.032Z,81.12
2023-04-02T01:43:25.041Z,81.57
2023-04-02T01:44:25.042Z,81.33
2023-04-02T01:45:25.021Z,80.61
2023-04-02T01:46:25.046Z,80.91
2023-04-02T01:47:24.999Z,81.02
2023-04-02T01:48:25.019Z,80.81
2023-04-02T01:49:24.956Z,80.61
2023-04-02T01:50:24.931Z,80.81
2023-04-02T01:51:24.914Z,81.02
2023-04-02T01:52:24.932Z,81.12
2023-04-02T01:53:24.895Z,81.43
2023-04-02T01:54:24.894Z,81.74
2023-04-02T01:55:24.878Z,81.84
2023-04-02T01:56:24.849Z,82.97
2023-04-02T01:57:24.885Z,83.12
2023-04-02T01:58:24.822Z,83.22
2023-04-02T01:59:24.801Z,82.81
2023-04-02T02:00:24.829Z,82.60
2023-04-02T02:01:24.836Z,83.22
2023-04-02T02:02:24.875Z,83.12
2023-04-02T02:03:24.783Z,83.22
2023-04-02T02:04:24.751Z,83.22
2023-04-02T02:05:24.728Z,83.73
2023-04-02T02:06:24.727Z,84.25
2023-04-02T02:07:24.710Z,83.84
2023-04-02T02:08:24.724Z,82.70
2023-04-02T02:09:24.689Z,81.57
2023-04-02T02:10:24.670Z,81.67
2023-04-02T02:11:24.664Z,81.77
2023-04-02T02:12:24.634Z,81.05
2023-04-02T02:13:24.649Z,79.30
2023-04-02T02:14:24.608Z,80.13
2023-04-02T02:15:24.620Z,80.44
2023-04-02T02:16:24.699Z,80.54
2023-04-02T02:17:24.617Z,80.95
2023-04-02T02:18:24.575Z,81.16
2023-04-02T02:19:24.594Z,81.47
2023-04-02T02:20:24.533Z,81.98
2023-04-02T02:21:24.515Z,81.16
2023-04-02T02:22:24.511Z,81.67
2023-04-02T02:23:24.491Z,81.98
2023-04-02T02:24:24.473Z,82.50
2023-04-02T02:25:24.529Z,82.60
2023-04-02T02:26:24.460Z,83.01
2023-04-02T02:27:24.484Z,83.12
2023-04-02T02:28:24.419Z,82.81
2023-04-02T02:29:24.404Z,82.91
2023-04-02T02:30:24.413Z,83.01
2023-04-02T02:31:24.411Z,83.01
2023-04-02T02:32:24.428Z,83.12
2023-04-02T02:33:24.366Z,83.73
2023-04-02T02:34:24.351Z,83.73
2023-04-02T02:35:24.356Z,83.73
2023-04-02T02:36:24.362Z,84.25
2023-04-02T02:37:24.314Z,84.49
2023-04-02T02:38:24.305Z,84.59
2023-04-02T02:39:24.293Z,84.70
2023-04-02T02:40:24.262Z,84.59
2023-04-02T02:41:24.246Z,84.59
2023-04-02T02:42:24.237Z,85.01
2023-04-02T02:43:24.264Z,84.80
2023-04-02T02:44:24.253Z,84.80
2023-04-02T02:45:24.220Z,84.70
2023-04-02T02:46:24.261Z,84.59
2023-04-02T02:47:24.223Z,84.80
2023-04-02T02:48:24.160Z,85.01
2023-04-02T02:49:24.151Z,84.91
2023-04-02T02:50:24.163Z,85.22
2023-04-02T02:51:24.156Z,85.31
2023-04-02T02:52:24.115Z,85.01
2023-04-02T02:53:24.101Z,85.01
2023-04-02T02:54:24.080Z,85.11
2023-04-02T02:55:24.130Z,85.11
2023-04-02T02:56:24.059Z,85.22
2023-04-02T02:57:24.093Z,85.42
2023-04-02T02:58:24.059Z,85.52
2023-04-02T02:59:24.050Z,85.73
2023-04-02T03:00:24.012Z,85.31
2023-04-02T03:01:24.040Z,85.11
2023-04-02T03:02:24.014Z,85.73
2023-04-02T03:03:24.066Z,85.57
2023-04-02T03:04:23.966Z,85.63
2023-04-02T03:05:23.935Z,85.77
2023-04-02T03:06:23.937Z,86.29
2023-04-02T03:07:23.926Z,86.29
2023-04-02T03:08:23.916Z,86.08
2023-04-02T03:09:23.877Z,86.08
2023-04-02T03:10:23.866Z,86.39
2023-04-02T03:11:23.878Z,86.29
2023-04-02T03:12:23.859Z,86.29
2023-04-02T03:13:23.827Z,86.18
2023-04-02T03:14:23.812Z,86.29
2023-04-02T03:15:23.802Z,86.49
2023-04-02T03:16:23.836Z,86.70
2023-04-02T03:17:23.807Z,86.80
2023-04-02T03:18:23.766Z,87.01
2023-04-02T03:19:23.758Z,87.01
2023-04-02T03:20:23.743Z,86.90
2023-04-02T03:21:23.740Z,87.11
2023-04-02T03:22:23.860Z,86.90
2023-04-02T03:23:23.727Z,87.01
2023-04-02T03:24:23.690Z,86.80
2023-04-02T03:25:23.719Z,86.90
2023-04-02T03:26:23.661Z,86.90
2023-04-02T03:27:23.640Z,86.60
2023-04-02T03:28:23.657Z,86.39
2023-04-02T03:29:23.649Z,86.39
2023-04-02T03:30:23.617Z,86.08
2023-04-02T03:31:23.672Z,86.08
2023-04-02T03:32:23.611Z,86.18
2023-04-02T03:33:23.560Z,85.97
2023-04-02T03:34:23.574Z,85.87
2023-04-02T03:35:23.562Z,85.97
2023-04-02T03:36:23.677Z,85.87
2023-04-02T03:37:23.511Z,86.18
2023-04-02T03:38:23.523Z,85.97
2023-04-02T03:39:23.479Z,84.84
2023-04-02T03:40:23.471Z,84.33
2023-04-02T03:41:23.457Z,84.33
2023-04-02T03:42:23.498Z,84.22
2023-04-02T03:43:23.421Z,84.12
2023-04-02T03:44:23.427Z,84.12
2023-04-02T03:45:23.406Z,83.81
2023-04-02T03:46:23.425Z,83.81
2023-04-02T03:47:23.427Z,84.01
2023-04-02T03:48:23.396Z,84.12
2023-04-02T03:49:23.370Z,84.12
2023-04-02T03:50:23.340Z,84.22
2023-04-02T03:51:23.346Z,84.22
2023-04-02T03:52:23.325Z,84.01
2023-04-02T03:53:23.341Z,84.01
2023-04-02T03:54:23.328Z,84.43
2023-04-02T03:55:23.283Z,84.22
2023-04-02T03:56:23.265Z,83.91
2023-04-02T03:57:23.263Z,83.81
2023-04-02T03:58:23.262Z,83.61
2023-04-02T03:59:23.233Z,83.40
2023-04-02T04:00:23.201Z,83.91
2023-04-02T04:01:23.218Z,84.53
2023-04-02T04:02:23.326Z,84.84
2023-04-02T04:03:23.193Z,84.74
2023-04-02T04:04:23.181Z,84.64
2023-04-02T04:05:23.147Z,84.53
2023-04-02T04:06:23.125Z,84.78
2023-04-02T04:07:23.105Z,84.88
2023-04-02T04:08:23.137Z,83.85
2023-04-02T04:09:23.093Z,83.33
2023-04-02T04:10:23.091Z,83.75
2023-04-02T04:11:23.059Z,83.91
2023-04-02T04:12:23.038Z,84.27
2023-04-02T04:13:23.095Z,84.27
2023-04-02T04:14:23.026Z,84.57
2023-04-02T04:15:23.012Z,84.57
2023-04-02T04:16:23.002Z,84.57
2023-04-02T04:17:22.985Z,84.57
2023-04-02T04:18:23.019Z,84.27
2023-04-02T04:19:22.942Z,84.36
2023-04-02T04:20:22.931Z,84.78
2023-04-02T04:21:22.954Z,84.99
2023-04-02T04:22:22.914Z,85.19
2023-04-02T04:23:22.920Z,85.09
2023-04-02T04:24:22.879Z,84.57
2023-04-02T04:25:22.890Z,84.27
2023-04-02T04:26:22.892Z,84.27
2023-04-02T04:27:22.856Z,83.95
2023-04-02T04:28:22.845Z,83.23
2023-04-02T04:29:22.844Z,82.30
2023-04-02T04:30:22.820Z,82.30
2023-04-02T04:31:25.281Z,82.51
2023-04-02T04:32:22.789Z,83.03
2023-04-02T04:33:22.813Z,83.54
2023-04-02T04:34:22.766Z,82.82
2023-04-02T04:35:22.749Z,82.61
2023-04-02T04:36:22.727Z,83.09
2023-04-02T04:37:22.732Z,82.98
2023-04-02T04:38:22.734Z,82.98
2023-04-02T04:39:22.697Z,82.98
2023-04-02T04:40:22.667Z,82.37
2023-04-02T04:41:22.693Z,82.57
2023-04-02T04:42:22.654Z,82.89
2023-04-02T04:43:22.659Z,82.78
2023-04-02T04:44:22.677Z,82.26
2023-04-02T04:45:22.608Z,82.37
2023-04-02T04:46:22.666Z,82.78
2023-04-02T04:47:22.618Z,82.78
2023-04-02T04:48:22.577Z,82.57
2023-04-02T04:49:22.585Z,82.78
2023-04-02T04:50:22.542Z,83.40
2023-04-02T04:51:22.611Z,83.81
2023-04-02T04:52:22.529Z,84.12
2023-04-02T04:53:22.519Z,84.12
2023-04-02T04:54:22.527Z,84.33
2023-04-02T04:55:22.492Z,84.33
2023-04-02T04:56:22.502Z,84.53
2023-04-02T04:57:22.526Z,84.22
2023-04-02T04:58:22.436Z,83.81
2023-04-02T04:59:22.431Z,83.09
2023-04-02T05:00:22.419Z,83.19
2023-04-02T05:01:22.421Z,83.09
2023-04-02T05:02:22.433Z,82.78
2023-04-02T05:03:22.376Z,82.68
2023-04-02T05:04:22.421Z,83.29
2023-04-02T05:05:22.349Z,83.71
2023-04-02T05:06:22.358Z,83.61
2023-04-02T05:07:22.314Z,83.40
2023-04-02T05:08:22.317Z,83.61
2023-04-02T05:09:22.308Z,83.71
2023-04-02T05:10:22.284Z,83.81
2023-04-02T05:11:22.300Z,83.81
2023-04-02T05:12:22.255Z,83.50
2023-04-02T05:13:22.231Z,83.50
2023-04-02T05:14:22.224Z,82.68
2023-04-02T05:15:22.240Z,82.89
2023-04-02T05:16:22.211Z,83.19
2023-04-02T05:17:22.210Z,82.89
2023-04-02T05:18:22.186Z,82.47
2023-04-02T05:19:22.169Z,82.26
2023-04-02T05:20:22.152Z,82.98
2023-04-02T05:21:22.147Z,83.09
2023-04-02T05:22:22.155Z,83.19
2023-04-02T05:23:22.116Z,83.50
2023-04-02T05:24:22.119Z,83.91
2023-04-02T05:25:22.113Z,83.91
2023-04-02T05:26:22.083Z,84.01
2023-04-02T05:27:22.056Z,84.22
2023-04-02T05:28:22.064Z,83.91
2023-04-02T05:29:22.028Z,84.22
2023-04-02T05:30:22.001Z,84.53
2023-04-02T05:31:22.024Z,84.53
2023-04-02T05:32:21.985Z,84.64
2023-04-02T05:33:22.012Z,84.84
2023-04-02T05:34:21.967Z,85.05
2023-04-02T05:35:21.953Z,85.25
2023-04-02T05:36:22.026Z,85.25
2023-04-02T05:37:21.933Z,84.53
2023-04-02T05:38:21.932Z,84.22
2023-04-02T05:39:21.899Z,84.22
2023-04-02T05:40:21.878Z,83.81
2023-04-02T05:41:21.908Z,82.98
2023-04-02T05:42:21.847Z,83.29
2023-04-02T05:43:21.845Z,83.61
2023-04-02T05:44:21.841Z,84.43
2023-04-02T05:45:21.840Z,84.64
2023-04-02T05:46:21.856Z,84.64
2023-04-02T05:47:21.830Z,84.01
2023-04-02T05:48:21.798Z,84.33
2023-04-02T05:49:21.795Z,84.33
2023-04-02T05:50:21.754Z,84.33
2023-04-02T05:51:21.742Z,84.43
2023-04-02T05:52:21.752Z,84.12
2023-04-02T05:53:21.709Z,84.94
2023-04-02T05:54:21.697Z,85.05
2023-04-02T05:55:21.672Z,84.43
2023-04-02T05:56:21.683Z,83.61
2023-04-02T05:57:26.992Z,83.81
2023-04-02T05:58:35.331Z,84.12
2023-04-02T05:59:21.648Z,84.33
2023-04-02T06:00:21.682Z,84.43
2023-04-02T06:01:21.638Z,84.53
2023-04-02T06:02:21.646Z,84.84
2023-04-02T06:03:21.639Z,85.15
2023-04-02T06:04:21.595Z,84.84
2023-04-02T06:05:21.582Z,84.94
2023-04-02T06:06:21.541Z,84.70
2023-04-02T06:07:21.503Z,83.47
2023-04-02T06:08:21.542Z,82.12
2023-04-02T06:09:21.486Z,81.30
2023-04-02T06:10:22.835Z,80.89
2023-04-02T06:11:21.493Z,80.79
2023-04-02T06:12:21.459Z,81.40
2023-04-02T06:13:21.435Z,80.79
2023-04-02T06:14:21.439Z,81.51
2023-04-02T06:15:21.502Z,81.71
2023-04-02T06:16:21.415Z,82.23
2023-04-02T06:17:21.407Z,80.89
2023-04-02T06:18:21.423Z,80.58
2023-04-02T06:19:21.387Z,82.12
2023-04-02T06:20:21.376Z,82.81
2023-04-02T06:21:21.347Z,83.32
2023-04-02T06:22:21.312Z,83.01
2023-04-02T06:23:21.320Z,80.95
2023-04-02T06:24:21.288Z,77.14
2023-04-02T06:25:21.279Z,79.20
2023-04-02T06:26:21.318Z,80.65
2023-04-02T06:27:21.264Z,81.26
2023-04-02T06:28:21.252Z,81.57
2023-04-02T06:29:21.226Z,81.05
2023-04-02T06:30:21.199Z,81.63
2023-04-02T06:31:21.285Z,81.74
2023-04-02T06:32:21.228Z,81.63
2023-04-02T06:33:21.241Z,81.95
2023-04-02T06:34:21.178Z,82.35
2023-04-02T06:35:21.248Z,82.46
2023-04-02T06:36:21.208Z,82.56
2023-04-02T06:37:21.176Z,82.46
2023-04-02T06:38:21.124Z,82.56
2023-04-02T06:39:21.099Z,82.56
2023-04-02T06:40:21.081Z,82.35
2023-04-02T06:41:21.073Z,82.15
2023-04-02T06:42:21.096Z,82.15
2023-04-02T06:43:21.037Z,82.87
2023-04-02T06:44:21.029Z,82.87
2023-04-02T06:45:21.023Z,82.97
2023-04-02T06:46:21.041Z,81.84
2023-04-02T06:47:21.034Z,81.95
2023-04-02T06:48:20.975Z,82.25
2023-04-02T06:49:20.962Z,83.07
2023-04-02T06:50:20.973Z,83.04
2023-04-02T06:51:20.930Z,83.04
2023-04-02T06:52:20.910Z,83.55
2023-04-02T06:53:20.930Z,83.45
2023-04-02T06:54:20.952Z,82.73
2023-04-02T06:55:21.438Z,82.63
2023-04-02T06:56:20.863Z,82.11
2023-04-02T06:57:20.877Z,80.98
2023-04-02T06:58:20.862Z,81.09
2023-04-02T06:59:20.854Z,79.44
2023-04-02T07:00:20.818Z,78.92
2023-04-02T07:01:20.881Z,78.41
2023-04-02T07:02:20.781Z,78.30
2023-04-02T07:03:20.788Z,78.82
2023-04-02T07:04:20.788Z,79.75
2023-04-02T07:05:20.765Z,80.98
2023-04-02T07:06:20.783Z,80.57
2023-04-02T07:07:20.728Z,79.75
2023-04-02T07:08:20.700Z,79.54
2023-04-02T07:09:20.714Z,79.23
2023-04-02T07:10:20.675Z,79.03
2023-04-02T07:11:21.046Z,78.61
2023-04-02T07:12:20.651Z,79.13
2023-04-02T07:13:20.629Z,78.61
2023-04-02T07:14:20.641Z,78.92
2023-04-02T07:15:20.626Z,77.55
2023-04-02T07:16:20.675Z,78.06
2023-04-02T07:17:20.588Z,78.17
2023-04-02T07:18:20.556Z,78.58
2023-04-02T07:19:20.589Z,78.58
2023-04-02T07:20:20.560Z,78.27
2023-04-02T07:21:20.518Z,78.17
2023-04-02T07:22:20.515Z,78.47
2023-04-02T07:23:20.507Z,78.78
2023-04-02T07:24:20.508Z,79.09
2023-04-02T07:25:20.469Z,78.78
2023-04-02T07:26:20.456Z,79.09
2023-04-02T07:27:20.464Z,79.50
2023-04-02T07:28:22.441Z,80.33
2023-04-02T07:29:20.506Z,80.53
2023-04-02T07:30:20.446Z,80.22
2023-04-02T07:31:20.471Z,80.08
2023-04-02T07:32:50.955Z,79.98
2023-04-02T07:33:20.365Z,79.47
2023-04-02T07:34:20.356Z,78.44
2023-04-02T07:35:20.376Z,76.90
2023-04-02T07:36:20.368Z,77.10
2023-04-02T07:37:20.302Z,78.23
2023-04-02T07:38:20.308Z,77.92
2023-04-02T07:39:20.296Z,78.33
2023-04-02T07:40:20.298Z,77.82
2023-04-02T07:41:20.255Z,77.92
2023-04-02T07:42:20.269Z,76.28
2023-04-02T07:43:20.255Z,76.59
2023-04-02T07:44:20.216Z,76.90
2023-04-02T07:45:20.208Z,77.51
2023-04-02T07:46:20.288Z,77.62
2023-04-02T07:47:20.172Z,77.10
2023-04-02T07:48:20.176Z,76.28
2023-04-02T07:49:20.210Z,76.28
2023-04-02T07:50:20.142Z,77.31
2023-04-02T07:51:20.159Z,78.44
2023-04-02T07:52:20.108Z,78.33
2023-04-02T07:53:35.330Z,77.99
2023-04-02T07:54:20.083Z,77.27
2023-04-02T07:55:20.068Z,76.76
2023-04-02T07:56:20.177Z,76.55
2023-04-02T07:57:20.109Z,76.55
2023-04-02T07:58:20.040Z,75.93
2023-04-02T07:59:20.032Z,76.14
2023-04-02T08:00:19.995Z,76.04
2023-04-02T08:01:20.034Z,76.14
2023-04-02T08:02:20.004Z,77.37
2023-04-02T08:03:20.101Z,75.63
2023-04-02T08:04:20.008Z,76.25
2023-04-02T08:05:19.942Z,76.86
2023-04-02T08:06:19.919Z,77.13
2023-04-02T08:07:19.944Z,77.13
2023-04-02T08:08:19.892Z,76.72
2023-04-02T08:09:19.867Z,77.44
2023-04-02T08:10:19.868Z,78.16
2023-04-02T08:11:19.845Z,78.47
2023-04-02T08:12:19.900Z,78.88
2023-04-02T08:13:19.872Z,79.19
2023-04-02T08:14:19.823Z,78.78
2023-04-02T08:15:19.826Z,77.34
2023-04-02T08:16:19.812Z,77.34
2023-04-02T08:17:19.775Z,76.42
2023-04-02T08:18:19.761Z,75.49
2023-04-02T08:19:19.772Z,76.00
2023-04-02T08:20:19.746Z,75.70
2023-04-02T08:21:19.716Z,74.87
2023-04-02T08:23:47.631Z,74.36
2023-04-02T08:23:52.994Z,74.46
2023-04-02T08:24:52.980Z,73.13
2023-04-02T08:25:52.941Z,73.95
2023-04-02T08:26:52.948Z,71.69
2023-04-02T08:27:52.953Z,71.69
2023-04-02T08:28:52.910Z,73.64
2023-04-02T08:29:52.907Z,74.12
2023-04-02T08:30:52.957Z,75.45
2023-04-02T08:31:52.872Z,75.25
2023-04-02T08:32:52.881Z,75.66
2023-04-02T08:33:52.839Z,76.07
2023-04-02T08:34:52.828Z,76.28
2023-04-02T08:35:52.895Z,76.79
2023-04-02T08:36:52.822Z,76.48
2023-04-02T08:37:52.791Z,76.48
2023-04-02T08:38:52.785Z,72.27
2023-04-02T08:39:52.792Z,67.96
2023-04-02T08:40:52.749Z,68.03
2023-04-02T08:41:52.737Z,70.90
2023-04-02T08:42:52.836Z,71.11
2023-04-02T08:43:52.747Z,71.93
2023-04-02T08:44:52.696Z,73.06
2023-04-02T08:45:52.700Z,72.85
2023-04-02T08:46:52.670Z,71.21
2023-04-02T08:47:52.733Z,71.42
2023-04-02T08:48:52.675Z,71.83
2023-04-02T08:49:52.648Z,72.24
2023-04-02T08:50:52.617Z,71.11
2023-04-02T08:51:52.604Z,71.21
2023-04-02T08:52:52.617Z,70.67
2023-04-02T08:53:52.579Z,70.15
2023-04-02T08:54:52.563Z,68.62
2023-04-02T08:55:52.562Z,67.08
2023-04-02T08:56:52.571Z,68.62
2023-04-02T08:57:52.570Z,69.13
2023-04-02T08:58:52.517Z,69.74
2023-04-02T08:59:52.525Z,70.46
2023-04-02T09:00:52.483Z,70.05
2023-04-02T09:01:52.515Z,70.15
2023-04-02T09:02:52.496Z,70.46
2023-04-02T09:03:52.446Z,70.05
2023-04-02T09:04:52.467Z,69.84
2023-04-02T09:05:52.442Z,69.74
2023-04-02T09:06:52.406Z,70.15
2023-04-02T09:07:52.427Z,70.05
2023-04-02T09:08:52.397Z,69.54
2023-04-02T09:09:52.370Z,70.26
2023-04-02T09:10:52.346Z,70.77
2023-04-02T09:11:52.347Z,71.18
2023-04-02T09:12:52.332Z,69.13
2023-04-02T09:13:52.336Z,69.13
2023-04-02T09:14:52.307Z,69.23
2023-04-02T09:15:52.369Z,69.64
2023-04-02T09:16:52.269Z,69.13
2023-04-02T09:17:54.388Z,69.43
2023-04-02T09:18:52.277Z,68.41
2023-04-02T09:19:52.254Z,69.33
2023-04-02T09:20:52.242Z,68.92
2023-04-02T09:21:52.200Z,68.92
2023-04-02T09:22:52.181Z,69.13
2023-04-02T09:23:52.206Z,69.71
2023-04-02T09:24:52.154Z,68.99
2023-04-02T09:26:03.705Z,69.20
2023-04-02T09:26:52.143Z,66.84
2023-04-02T09:27:52.130Z,66.22
2023-04-02T09:28:52.139Z,66.12
2023-04-02T09:29:52.102Z,66.33
2023-04-02T09:30:52.080Z,67.14
2023-04-02T09:31:52.138Z,66.12
2023-04-02T09:32:52.171Z,66.84
2023-04-02T09:33:52.044Z,67.97
2023-04-02T09:34:52.053Z,68.68
2023-04-02T09:35:52.086Z,69.10
2023-04-02T09:36:52.011Z,68.96
2023-04-02T09:37:51.988Z,68.24
2023-04-02T09:38:51.973Z,67.94
2023-04-02T09:39:52.004Z,67.83
2023-04-02T09:40:51.964Z,69.27
2023-04-02T09:42:02.803Z,68.45
2023-04-02T09:42:51.930Z,69.03
2023-04-02T09:43:51.920Z,67.70
2023-04-02T09:44:51.917Z,66.57
2023-04-02T09:45:51.918Z,65.75
2023-04-02T09:46:51.887Z,64.32
2023-04-02T09:47:51.865Z,62.99
2023-04-02T09:48:51.851Z,63.20
2023-04-02T09:49:51.879Z,64.22
2023-04-02T09:50:51.880Z,63.70
2023-04-02T09:51:51.809Z,63.70
2023-04-02T09:52:51.804Z,62.27
2023-04-02T09:53:51.805Z,63.70
2023-04-02T09:54:51.788Z,64.53
2023-04-02T09:55:51.758Z,66.06
2023-04-02T09:56:51.773Z,66.88
2023-04-02T09:57:51.764Z,68.21
2023-04-02T09:58:51.711Z,68.18
2023-04-02T09:59:51.694Z,67.97
2023-04-02T10:00:51.698Z,67.77
2023-04-02T10:01:51.686Z,68.28
2023-04-02T10:02:51.696Z,67.97
2023-04-02T10:03:51.714Z,68.08
2023-04-02T10:04:51.640Z,67.97
2023-04-02T10:07:19.133Z,68.90
2023-04-02T10:07:24.489Z,67.94
2023-04-02T10:08:24.472Z,68.05
2023-04-02T10:09:24.456Z,68.15
2023-04-02T10:10:25.919Z,68.76
2023-04-02T10:11:26.970Z,68.46
2023-04-02T10:12:24.417Z,67.60
2023-04-02T10:13:24.454Z,67.10
2023-04-02T10:14:24.390Z,66.78
2023-04-02T10:15:24.418Z,66.69
2023-04-02T10:16:25.760Z,67.10
2023-04-02T10:17:24.372Z,67.71
2023-04-02T10:18:24.363Z,67.19
2023-04-02T10:19:24.340Z,67.10
2023-04-02T10:20:24.356Z,66.38
2023-04-02T10:21:24.322Z,66.58
2023-04-02T10:22:24.276Z,67.50
2023-04-02T10:23:24.309Z,66.58
2023-04-02T10:24:24.259Z,66.99
2023-04-02T10:25:24.248Z,67.10
2023-04-02T10:26:24.266Z,66.58
2023-04-02T10:27:24.210Z,65.25
2023-04-02T10:28:24.197Z,64.74
2023-04-02T10:29:24.220Z,64.03
2023-04-02T10:30:24.207Z,65.87
2023-04-02T10:31:24.239Z,66.89
2023-04-02T10:32:24.262Z,65.56
2023-04-02T10:33:24.146Z,66.25
2023-04-02T10:34:24.120Z,66.86
2023-04-02T10:35:24.144Z,67.78
2023-04-02T10:36:24.117Z,68.70
2023-04-02T10:37:24.079Z,68.08
2023-04-02T10:38:24.120Z,68.46
2023-04-02T10:39:24.071Z,68.46
2023-04-02T10:40:24.041Z,67.85
2023-04-02T10:41:24.057Z,68.26
2023-04-02T10:42:24.058Z,67.85
2023-04-02T10:43:24.026Z,67.65
2023-04-02T10:44:23.999Z,66.52
2023-04-02T10:45:24.013Z,66.62
2023-04-02T10:46:25.595Z,66.01
2023-04-02T10:47:23.956Z,65.50
2023-04-02T10:48:23.967Z,65.91
2023-04-02T10:49:23.944Z,66.72
2023-04-02T10:50:23.930Z,66.01
2023-04-02T10:51:23.907Z,65.40
2023-04-02T10:52:23.875Z,64.78
2023-04-02T10:53:23.908Z,65.50
2023-04-02T10:54:23.883Z,65.09
2023-04-02T10:55:23.876Z,64.68
2023-04-02T10:56:23.879Z,64.89
2023-04-02T10:57:23.858Z,65.40
2023-04-02T10:58:23.829Z,63.45
2023-04-02T10:59:23.805Z,64.89
2023-04-02T11:00:23.813Z,65.30
2023-04-02T11:01:23.839Z,64.89
2023-04-02T11:02:23.816Z,66.01
2023-04-02T11:03:23.815Z,67.13
2023-04-02T11:04:23.743Z,68.19
2023-04-02T11:05:23.782Z,68.08
2023-04-02T11:06:23.722Z,69.28
2023-04-02T11:07:23.751Z,67.88
2023-04-02T11:08:23.690Z,69.31
2023-04-02T11:09:23.647Z,69.11
2023-04-02T11:10:23.672Z,69.72
2023-04-02T11:11:23.660Z,69.82
2023-04-02T11:12:23.631Z,68.80
2023-04-02T11:13:23.618Z,68.46
2023-04-02T11:14:23.589Z,70.92
2023-04-02T11:15:23.633Z,71.19
2023-04-02T11:16:23.628Z,70.37
2023-04-02T11:17:23.613Z,70.37
2023-04-02T11:18:23.552Z,69.32
2023-04-02T11:19:23.557Z,68.77
2023-04-02T11:20:23.510Z,70.31
2023-04-02T11:21:23.510Z,68.84
2023-04-02T11:22:23.489Z,68.44
2023-04-02T11:23:23.478Z,66.67
2023-04-02T11:24:23.477Z,66.47
2023-04-02T11:25:23.435Z,66.88
2023-04-02T11:26:23.427Z,67.90
2023-04-02T11:27:23.422Z,66.77
2023-04-02T11:28:25.115Z,66.27
2023-04-02T11:29:23.414Z,65.45
2023-04-02T11:30:23.384Z,64.22
2023-04-02T11:31:23.409Z,65.48
2023-04-02T11:32:23.415Z,65.37
2023-04-02T11:33:35.916Z,65.58
2023-04-02T11:34:23.354Z,63.95
2023-04-02T11:35:23.313Z,63.47
2023-04-02T11:36:23.321Z,63.67
2023-04-02T11:37:23.314Z,64.79
2023-04-02T11:38:23.271Z,63.67
2023-04-02T11:39:23.271Z,63.81
2023-04-02T11:40:23.284Z,65.84
2023-04-02T11:41:23.223Z,66.12
2023-04-02T11:42:23.217Z,67.45
2023-04-02T11:43:23.238Z,67.96
2023-04-02T11:44:23.200Z,67.04
2023-04-02T11:45:23.203Z,65.51
2023-04-02T11:46:23.179Z,65.00
2023-04-02T11:47:23.289Z,66.22
2023-04-02T11:48:23.164Z,66.53
2023-04-02T11:49:23.120Z,64.28
2023-04-02T11:50:23.107Z,63.67
2023-04-02T11:51:23.119Z,64.49
2023-04-02T11:52:23.076Z,65.71
2023-04-02T11:53:23.102Z,65.92
2023-04-02T11:54:23.069Z,66.22
2023-04-02T11:55:23.043Z,66.83
2023-04-02T11:56:23.030Z,66.94
2023-04-02T11:57:23.038Z,67.24
2023-04-02T11:58:23.016Z,66.94
2023-04-02T11:59:22.987Z,64.49
2023-04-02T12:00:22.995Z,64.59
2023-04-02T12:01:22.956Z,64.79
2023-04-02T12:02:22.985Z,65.81
2023-04-02T12:03:23.038Z,65.81
2023-04-02T12:04:22.905Z,65.31
2023-04-02T12:05:22.990Z,65.71
2023-04-02T12:06:22.956Z,64.49
2023-04-02T12:07:22.879Z,64.87
2023-04-02T12:08:22.889Z,65.99
2023-04-02T12:09:22.889Z,64.97
2023-04-02T12:10:22.852Z,66.60
2023-04-02T12:11:22.835Z,67.32
2023-04-02T12:12:22.857Z,67.49
2023-04-02T12:13:22.800Z,67.38
2023-04-02T12:14:22.785Z,65.55
2023-04-02T12:15:22.781Z,65.14
2023-04-02T12:16:22.807Z,64.53
2023-04-02T12:17:22.812Z,64.81
2023-04-02T12:18:22.736Z,63.99
2023-04-02T12:19:22.722Z,64.20
2023-04-02T12:20:22.719Z,64.09
2023-04-02T12:21:22.716Z,62.05
2023-04-02T12:22:22.703Z,60.93
2023-04-02T12:23:22.673Z,61.54
2023-04-02T12:24:22.655Z,60.73
2023-04-02T12:25:22.635Z,60.12
2023-04-02T12:26:23.139Z,61.04
2023-04-02T12:27:22.714Z,62.49
2023-04-02T12:28:22.632Z,62.59
2023-04-02T12:29:22.614Z,63.51
2023-04-02T12:30:22.588Z,61.07
2023-04-02T12:31:22.602Z,61.68
2023-04-02T12:32:22.581Z,61.68
2023-04-02T12:33:22.544Z,61.98
2023-04-02T12:34:22.518Z,63.61
2023-04-02T12:35:22.529Z,62.39
2023-04-02T12:36:22.561Z,62.80
2023-04-02T12:37:22.480Z,63.85
2023-04-02T12:38:22.450Z,64.25
2023-04-02T12:39:22.479Z,64.46
2023-04-02T12:40:22.441Z,63.23
2023-04-02T12:41:22.422Z,63.95
2023-04-02T12:42:22.417Z,64.56
2023-04-02T12:43:22.410Z,64.73
2023-04-02T12:44:22.387Z,64.32
2023-04-02T12:45:22.360Z,64.22
2023-04-02T12:46:22.387Z,62.80
2023-04-02T12:47:22.350Z,61.07
2023-04-02T12:48:22.363Z,61.16
2023-04-02T12:49:22.303Z,62.18
2023-04-02T12:50:22.296Z,61.37
2023-04-02T12:51:22.297Z,61.07
2023-04-02T12:52:22.272Z,62.49
2023-04-02T12:53:22.287Z,62.62